sensor_id;sensor_type;location;lat;lon;timestamp;pressure;altitude;pressure_sealevel;temperature;humidity
46955;BME280;32708;51.212;6.788;2024-01-16T00:00:53;100324.59;;;3.04;100.00
46955;BME280;32708;51.212;6.788;2024-01-16T00:03:19;100312.88;;;2.80;100.00
46955;BME280;32708;51.212;6.788;2024-01-16T00:05:46;100313.97;;;2.73;100.00
46955;BME280;32708;51.212;6.788;2024-01-16T00:08:12;100318.50;;;2.83;100.00
46955;BME280;32708;51.212;6.788;2024-01-16T00:10:38;100323.84;;;2.93;100.00
46955;BME280;32708;51.212;6.788;2024-01-16T00:13:04;100317.78;;;3.12;100.00
46955;BME280;32708;51.212;6.788;2024-01-16T00:15:30;100323.09;;;2.78;100.00
46955;BME280;32708;51.212;6.788;2024-01-16T00:17:56;100328.97;;;2.95;100.00
46955;BME280;32708;51.212;6.788;2024-01-16T00:20:22;100324.28;;;3.11;100.00
46955;BME280;32708;51.212;6.788;2024-01-16T00:22:51;100329.00;;;2.85;100.00
46955;BME280;32708;51.212;6.788;2024-01-16T00:25:18;100328.25;;;2.79;100.00
46955;BME280;32708;51.212;6.788;2024-01-16T00:27:46;100325.38;;;3.04;100.00
46955;BME280;32708;51.212;6.788;2024-01-16T00:30:13;100323.16;;;3.17;100.00
46955;BME280;32708;51.212;6.788;2024-01-16T00:32:39;100321.66;;;3.00;100.00
46955;BME280;32708;51.212;6.788;2024-01-16T00:35:06;100325.19;;;2.96;100.00
46955;BME280;32708;51.212;6.788;2024-01-16T00:37:32;100332.38;;;3.06;100.00
46955;BME280;32708;51.212;6.788;2024-01-16T00:39:58;100330.56;;;3.01;100.00
46955;BME280;32708;51.212;6.788;2024-01-16T00:42:26;100330.25;;;3.02;100.00
46955;BME280;32708;51.212;6.788;2024-01-16T00:44:52;100327.91;;;2.86;100.00
46955;BME280;32708;51.212;6.788;2024-01-16T00:47:18;100330.69;;;3.20;100.00
46955;BME280;32708;51.212;6.788;2024-01-16T00:49:44;100332.38;;;3.11;100.00
46955;BME280;32708;51.212;6.788;2024-01-16T00:52:11;100341.84;;;3.03;100.00
46955;BME280;32708;51.212;6.788;2024-01-16T00:54:37;100338.91;;;2.99;100.00
46955;BME280;32708;51.212;6.788;2024-01-16T00:57:03;100340.59;;;2.85;100.00
46955;BME280;32708;51.212;6.788;2024-01-16T00:59:29;100338.16;;;3.33;100.00
46955;BME280;32708;51.212;6.788;2024-01-16T01:01:55;100343.88;;;2.77;100.00
46955;BME280;32708;51.212;6.788;2024-01-16T01:04:22;100345.97;;;2.90;100.00
46955;BME280;32708;51.212;6.788;2024-01-16T01:06:48;100349.88;;;3.13;100.00
46955;BME280;32708;51.212;6.788;2024-01-16T01:09:14;100342.03;;;3.22;100.00
46955;BME280;32708;51.212;6.788;2024-01-16T01:11:40;100359.44;;;2.95;100.00
46955;BME280;32708;51.212;6.788;2024-01-16T01:14:06;100361.91;;;2.82;100.00
46955;BME280;32708;51.212;6.788;2024-01-16T01:16:33;100370.81;;;2.77;100.00
46955;BME280;32708;51.212;6.788;2024-01-16T01:18:59;100368.69;;;2.74;100.00
46955;BME280;32708;51.212;6.788;2024-01-16T01:21:26;100372.22;;;2.64;100.00
46955;BME280;32708;51.212;6.788;2024-01-16T01:23:52;100370.13;;;3.11;100.00
46955;BME280;32708;51.212;6.788;2024-01-16T01:26:19;100365.72;;;2.75;100.00
46955;BME280;32708;51.212;6.788;2024-01-16T01:28:45;100369.16;;;2.91;100.00
46955;BME280;32708;51.212;6.788;2024-01-16T01:31:12;100365.41;;;2.87;100.00
46955;BME280;32708;51.212;6.788;2024-01-16T01:33:40;100368.63;;;2.84;100.00
46955;BME280;32708;51.212;6.788;2024-01-16T01:36:06;100377.81;;;2.83;100.00
46955;BME280;32708;51.212;6.788;2024-01-16T01:38:32;100375.03;;;2.98;100.00
46955;BME280;32708;51.212;6.788;2024-01-16T01:40:58;100372.44;;;2.78;100.00
46955;BME280;32708;51.212;6.788;2024-01-16T01:43:25;100386.47;;;2.75;100.00
46955;BME280;32708;51.212;6.788;2024-01-16T01:46:18;100390.56;;;2.62;100.00
46955;BME280;32708;51.212;6.788;2024-01-16T01:48:47;100391.88;;;2.75;100.00
46955;BME280;32708;51.212;6.788;2024-01-16T01:51:18;100393.47;;;2.81;100.00
46955;BME280;32708;51.212;6.788;2024-01-16T01:53:46;100390.28;;;2.69;100.00
46955;BME280;32708;51.212;6.788;2024-01-16T01:56:18;100393.13;;;2.93;100.00
46955;BME280;32708;51.212;6.788;2024-01-16T01:58:48;100378.72;;;3.23;100.00
46955;BME280;32708;51.212;6.788;2024-01-16T02:01:19;100383.75;;;3.35;100.00
46955;BME280;32708;51.212;6.788;2024-01-16T02:03:47;100374.41;;;3.22;100.00
46955;BME280;32708;51.212;6.788;2024-01-16T02:06:15;100381.22;;;3.04;100.00
46955;BME280;32708;51.212;6.788;2024-01-16T02:08:44;100379.41;;;2.94;100.00
46955;BME280;32708;51.212;6.788;2024-01-16T02:11:10;100382.63;;;2.91;100.00
46955;BME280;32708;51.212;6.788;2024-01-16T02:13:37;100392.94;;;2.74;100.00
46955;BME280;32708;51.212;6.788;2024-01-16T02:16:04;100395.09;;;2.77;100.00
46955;BME280;32708;51.212;6.788;2024-01-16T02:18:31;100406.50;;;2.48;100.00
46955;BME280;32708;51.212;6.788;2024-01-16T02:21:03;100407.06;;;2.51;100.00
46955;BME280;32708;51.212;6.788;2024-01-16T02:23:32;100403.78;;;2.59;100.00
46955;BME280;32708;51.212;6.788;2024-01-16T02:25:59;100412.94;;;2.63;100.00
46955;BME280;32708;51.212;6.788;2024-01-16T02:28:25;100408.03;;;2.80;100.00
46955;BME280;32708;51.212;6.788;2024-01-16T02:30:52;100408.00;;;2.85;100.00
46955;BME280;32708;51.212;6.788;2024-01-16T02:33:18;100404.25;;;2.81;100.00
46955;BME280;32708;51.212;6.788;2024-01-16T02:35:44;100401.84;;;2.74;100.00
46955;BME280;32708;51.212;6.788;2024-01-16T02:38:10;100405.66;;;2.63;100.00
46955;BME280;32708;51.212;6.788;2024-01-16T02:40:36;100395.47;;;2.50;100.00
46955;BME280;32708;51.212;6.788;2024-01-16T02:43:02;100405.63;;;2.68;100.00
46955;BME280;32708;51.212;6.788;2024-01-16T02:45:28;100408.03;;;2.75;100.00
46955;BME280;32708;51.212;6.788;2024-01-16T02:47:54;100401.78;;;2.85;100.00
46955;BME280;32708;51.212;6.788;2024-01-16T02:50:21;100394.34;;;2.66;100.00
46955;BME280;32708;51.212;6.788;2024-01-16T02:52:47;100393.91;;;2.98;100.00
46955;BME280;32708;51.212;6.788;2024-01-16T02:55:13;100388.59;;;2.83;100.00
46955;BME280;32708;51.212;6.788;2024-01-16T02:57:39;100386.47;;;2.75;100.00
46955;BME280;32708;51.212;6.788;2024-01-16T03:00:06;100393.00;;;2.59;100.00
46955;BME280;32708;51.212;6.788;2024-01-16T03:02:34;100393.25;;;2.67;100.00
46955;BME280;32708;51.212;6.788;2024-01-16T03:05:03;100400.00;;;2.55;100.00
46955;BME280;32708;51.212;6.788;2024-01-16T03:07:31;100407.00;;;2.66;100.00
46955;BME280;32708;51.212;6.788;2024-01-16T03:09:57;100397.78;;;2.77;100.00
46955;BME280;32708;51.212;6.788;2024-01-16T03:12:23;100398.94;;;2.61;100.00
46955;BME280;32708;51.212;6.788;2024-01-16T03:14:49;100395.13;;;2.72;100.00
46955;BME280;32708;51.212;6.788;2024-01-16T03:17:15;100400.00;;;2.55;100.00
46955;BME280;32708;51.212;6.788;2024-01-16T03:19:41;100393.19;;;2.83;100.00
46955;BME280;32708;51.212;6.788;2024-01-16T03:22:09;100393.31;;;2.47;100.00
46955;BME280;32708;51.212;6.788;2024-01-16T03:24:35;100395.13;;;2.72;100.00
46955;BME280;32708;51.212;6.788;2024-01-16T03:27:02;100392.22;;;2.53;100.00
46955;BME280;32708;51.212;6.788;2024-01-16T03:29:30;100396.97;;;2.87;100.00
46955;BME280;32708;51.212;6.788;2024-01-16T03:31:56;100382.63;;;2.91;100.00
46955;BME280;32708;51.212;6.788;2024-01-16T03:34:23;100394.28;;;2.71;100.00
46955;BME280;32708;51.212;6.788;2024-01-16T03:36:50;100392.50;;;2.41;100.00
46955;BME280;32708;51.212;6.788;2024-01-16T03:39:16;100390.69;;;2.96;100.00
46955;BME280;32708;51.212;6.788;2024-01-16T03:41:43;100390.78;;;2.71;100.00
46955;BME280;32708;51.212;6.788;2024-01-16T03:44:09;100398.84;;;2.81;100.00
46955;BME280;32708;51.212;6.788;2024-01-16T03:46:35;100378.38;;;2.80;100.00
46955;BME280;32708;51.212;6.788;2024-01-16T03:49:01;100381.03;;;2.85;100.00
46955;BME280;32708;51.212;6.788;2024-01-16T03:51:28;100389.75;;;2.67;100.00
46955;BME280;32708;51.212;6.788;2024-01-16T03:53:54;100389.16;;;2.80;100.00
46955;BME280;32708;51.212;6.788;2024-01-16T03:56:20;100394.34;;;2.61;100.00
46955;BME280;32708;51.212;6.788;2024-01-16T03:58:46;100386.97;;;2.87;100.00
46955;BME280;32708;51.212;6.788;2024-01-16T04:01:12;100390.06;;;2.50;100.00
46955;BME280;32708;51.212;6.788;2024-01-16T04:03:39;100391.06;;;2.80;100.00
46955;BME280;32708;51.212;6.788;2024-01-16T04:06:18;100386.69;;;2.89;100.00
46955;BME280;32708;51.212;6.788;2024-01-16T04:08:45;100382.22;;;2.59;100.00
46955;BME280;32708;51.212;6.788;2024-01-16T04:11:13;100389.16;;;2.75;100.00
46955;BME280;32708;51.212;6.788;2024-01-16T04:13:39;100380.19;;;2.95;100.00
46955;BME280;32708;51.212;6.788;2024-01-16T04:16:07;100385.72;;;2.59;100.00
46955;BME280;32708;51.212;6.788;2024-01-16T04:18:37;100395.47;;;2.50;100.00
46955;BME280;32708;51.212;6.788;2024-01-16T04:21:04;100388.31;;;2.85;100.00
46955;BME280;32708;51.212;6.788;2024-01-16T04:23:30;100386.91;;;2.97;100.00
46955;BME280;32708;51.212;6.788;2024-01-16T04:25:56;100382.66;;;2.86;100.00
46955;BME280;32708;51.212;6.788;2024-01-16T04:28:22;100370.66;;;2.58;100.00
46955;BME280;32708;51.212;6.788;2024-01-16T04:30:49;100382.22;;;2.54;100.00
46955;BME280;32708;51.212;6.788;2024-01-16T04:33:15;100387.88;;;2.62;100.00
46955;BME280;32708;51.212;6.788;2024-01-16T04:35:42;100384.88;;;2.64;100.00
46955;BME280;32708;51.212;6.788;2024-01-16T04:38:08;100378.63;;;2.79;100.00
46955;BME280;32708;51.212;6.788;2024-01-16T04:40:34;100369.13;;;2.96;100.00
46955;BME280;32708;51.212;6.788;2024-01-16T04:43:00;100382.38;;;2.88;100.00
46955;BME280;32708;51.212;6.788;2024-01-16T04:45:26;100372.00;;;3.15;100.00
46955;BME280;32708;51.212;6.788;2024-01-16T04:47:52;100379.53;;;2.59;100.00
46955;BME280;32708;51.212;6.788;2024-01-16T04:50:19;100381.66;;;2.62;100.00
46955;BME280;32708;51.212;6.788;2024-01-16T04:52:45;100391.94;;;2.55;100.00
46955;BME280;32708;51.212;6.788;2024-01-16T04:55:11;100389.47;;;2.63;100.00
46955;BME280;32708;51.212;6.788;2024-01-16T04:57:37;100386.03;;;2.47;100.00
46955;BME280;32708;51.212;6.788;2024-01-16T05:00:04;100388.66;;;2.63;100.00
46955;BME280;32708;51.212;6.788;2024-01-16T05:02:33;100382.69;;;2.81;100.00
46955;BME280;32708;51.212;6.788;2024-01-16T05:05:00;100379.63;;;2.98;100.00
46955;BME280;32708;51.212;6.788;2024-01-16T05:07:26;100377.72;;;3.03;100.00
46955;BME280;32708;51.212;6.788;2024-01-16T05:09:52;100363.84;;;2.71;100.00
46955;BME280;32708;51.212;6.788;2024-01-16T05:12:19;100377.88;;;2.73;100.00
46955;BME280;32708;51.212;6.788;2024-01-16T05:14:46;100378.03;;;2.92;100.00
46955;BME280;32708;51.212;6.788;2024-01-16T05:17:12;100364.03;;;2.90;100.00
46955;BME280;32708;51.212;6.788;2024-01-16T05:19:40;100374.69;;;2.56;100.00
46955;BME280;32708;51.212;6.788;2024-01-16T05:22:06;100368.75;;;2.59;100.00
46955;BME280;32708;51.212;6.788;2024-01-16T05:24:32;100367.25;;;2.97;100.00
46955;BME280;32708;51.212;6.788;2024-01-16T05:26:58;100361.13;;;2.71;100.00
46955;BME280;32708;51.212;6.788;2024-01-16T05:29:24;100378.97;;;2.67;100.00
46955;BME280;32708;51.212;6.788;2024-01-16T05:31:50;100362.97;;;2.86;100.00
46955;BME280;32708;51.212;6.788;2024-01-16T05:34:16;100361.09;;;2.86;100.00
46955;BME280;32708;51.212;6.788;2024-01-16T05:36:42;100353.25;;;2.85;100.00
46955;BME280;32708;51.212;6.788;2024-01-16T05:39:09;100350.19;;;3.07;100.00
46955;BME280;32708;51.212;6.788;2024-01-16T05:41:36;100344.72;;;3.22;100.00
46955;BME280;32708;51.212;6.788;2024-01-16T05:44:03;100345.75;;;2.82;100.00
46955;BME280;32708;51.212;6.788;2024-01-16T05:46:32;100338.88;;;3.04;100.00
46955;BME280;32708;51.212;6.788;2024-01-16T05:48:58;100329.47;;;3.02;100.00
46955;BME280;32708;51.212;6.788;2024-01-16T05:51:27;100335.19;;;2.85;100.00
46955;BME280;32708;51.212;6.788;2024-01-16T05:53:55;100324.59;;;2.44;100.00
46955;BME280;32708;51.212;6.788;2024-01-16T05:56:21;100318.28;;;3.19;100.00
46955;BME280;32708;51.212;6.788;2024-01-16T05:58:47;100320.06;;;2.94;100.00
46955;BME280;32708;51.212;6.788;2024-01-16T06:01:14;100314.88;;;3.08;100.00
46955;BME280;32708;51.212;6.788;2024-01-16T06:03:40;100310.72;;;2.76;100.00
46955;BME280;32708;51.212;6.788;2024-01-16T06:06:07;100316.38;;;2.75;100.00
46955;BME280;32708;51.212;6.788;2024-01-16T06:08:34;100319.56;;;2.23;100.00
46955;BME280;32708;51.212;6.788;2024-01-16T06:11:00;100322.38;;;2.62;100.00
46955;BME280;32708;51.212;6.788;2024-01-16T06:13:26;100319.69;;;2.57;100.00
46955;BME280;32708;51.212;6.788;2024-01-16T06:15:53;100315.81;;;2.78;100.00
46955;BME280;32708;51.212;6.788;2024-01-16T06:18:19;100324.28;;;2.56;100.00
46955;BME280;32708;51.212;6.788;2024-01-16T06:20:45;100328.72;;;2.22;100.00
46955;BME280;32708;51.212;6.788;2024-01-16T06:23:12;100327.31;;;2.34;100.00
46955;BME280;32708;51.212;6.788;2024-01-16T06:25:38;100322.28;;;2.82;100.00
46955;BME280;32708;51.212;6.788;2024-01-16T06:28:05;100309.38;;;2.74;100.00
46955;BME280;32708;51.212;6.788;2024-01-16T06:30:33;100321.06;;;2.54;100.00
46955;BME280;32708;51.212;6.788;2024-01-16T06:33:00;100334.59;;;2.39;100.00
46955;BME280;32708;51.212;6.788;2024-01-16T06:35:26;100321.69;;;2.36;100.00
46955;BME280;32708;51.212;6.788;2024-01-16T06:37:52;100324.78;;;2.68;100.00
46955;BME280;32708;51.212;6.788;2024-01-16T06:40:18;100325.19;;;2.31;100.00
46955;BME280;32708;51.212;6.788;2024-01-16T06:42:45;100316.81;;;2.38;100.00
46955;BME280;32708;51.212;6.788;2024-01-16T06:45:11;100317.84;;;2.52;100.00
46955;BME280;32708;51.212;6.788;2024-01-16T06:47:39;100326.28;;;2.25;100.00
46955;BME280;32708;51.212;6.788;2024-01-16T06:50:07;100321.13;;;2.34;100.00
46955;BME280;32708;51.212;6.788;2024-01-16T06:52:33;100326.56;;;2.24;100.00
46955;BME280;32708;51.212;6.788;2024-01-16T06:55:00;100332.75;;;2.29;100.00
46955;BME280;32708;51.212;6.788;2024-01-16T06:57:27;100339.78;;;2.10;100.00
46955;BME280;32708;51.212;6.788;2024-01-16T06:59:53;100334.31;;;2.35;100.00
46955;BME280;32708;51.212;6.788;2024-01-16T07:02:19;100331.09;;;2.33;100.00
46955;BME280;32708;51.212;6.788;2024-01-16T07:04:46;100325.97;;;2.37;100.00
46955;BME280;32708;51.212;6.788;2024-01-16T07:07:12;100320.31;;;2.43;100.00
46955;BME280;32708;51.212;6.788;2024-01-16T07:09:56;100330.38;;;2.07;100.00
46955;BME280;32708;51.212;6.788;2024-01-16T07:12:23;100323.25;;;2.47;100.00
46955;BME280;32708;51.212;6.788;2024-01-16T07:14:49;100328.69;;;2.27;100.00
46955;BME280;32708;51.212;6.788;2024-01-16T07:17:16;100335.16;;;2.36;100.00
46955;BME280;32708;51.212;6.788;2024-01-16T07:19:43;100339.97;;;2.44;100.00
46955;BME280;32708;51.212;6.788;2024-01-16T07:22:09;100338.38;;;2.28;100.00
46955;BME280;32708;51.212;6.788;2024-01-16T07:24:36;100348.56;;;2.46;100.00
46955;BME280;32708;51.212;6.788;2024-01-16T07:27:02;100342.72;;;2.24;100.00
46955;BME280;32708;51.212;6.788;2024-01-16T07:29:28;100357.75;;;2.45;100.00
46955;BME280;32708;51.212;6.788;2024-01-16T07:31:55;100352.66;;;2.38;100.00
46955;BME280;32708;51.212;6.788;2024-01-16T07:34:21;100346.69;;;2.41;100.00
46955;BME280;32708;51.212;6.788;2024-01-16T07:36:48;100333.19;;;2.52;100.00
46955;BME280;32708;51.212;6.788;2024-01-16T07:39:14;100345.59;;;2.53;100.00
46955;BME280;32708;51.212;6.788;2024-01-16T07:41:40;100341.34;;;2.36;100.00
46955;BME280;32708;51.212;6.788;2024-01-16T07:44:07;100343.72;;;2.48;100.00
46955;BME280;32708;51.212;6.788;2024-01-16T07:46:33;100339.34;;;2.67;100.00
46955;BME280;32708;51.212;6.788;2024-01-16T07:49:00;100342.09;;;2.57;100.00
46955;BME280;32708;51.212;6.788;2024-01-16T07:51:26;100341.81;;;2.59;100.00
46955;BME280;32708;51.212;6.788;2024-01-16T07:54:06;100347.66;;;2.76;100.00
46955;BME280;32708;51.212;6.788;2024-01-16T07:56:34;100344.88;;;2.22;100.00
46955;BME280;32708;51.212;6.788;2024-01-16T07:59:02;100347.66;;;2.71;100.00
46955;BME280;32708;51.212;6.788;2024-01-16T08:01:28;100346.09;;;2.60;100.00
46955;BME280;32708;51.212;6.788;2024-01-16T08:03:56;100347.94;;;2.64;100.00
46955;BME280;32708;51.212;6.788;2024-01-16T08:06:23;100345.81;;;2.61;100.00
46955;BME280;32708;51.212;6.788;2024-01-16T08:08:50;100335.31;;;2.60;100.00
46955;BME280;32708;51.212;6.788;2024-01-16T08:11:27;100333.94;;;2.72;100.00
46955;BME280;32708;51.212;6.788;2024-01-16T08:14:04;100337.38;;;2.78;100.00
46955;BME280;32708;51.212;6.788;2024-01-16T08:16:37;100339.16;;;3.03;100.00
46955;BME280;32708;51.212;6.788;2024-01-16T08:19:07;100333.59;;;2.84;100.00
46955;BME280;32708;51.212;6.788;2024-01-16T08:21:39;100340.09;;;2.78;100.00
46955;BME280;32708;51.212;6.788;2024-01-16T08:24:12;100345.72;;;2.87;100.00
46955;BME280;32708;51.212;6.788;2024-01-16T08:26:39;100340.53;;;3.00;100.00
46955;BME280;32708;51.212;6.788;2024-01-16T08:29:08;100343.31;;;2.80;100.00
46955;BME280;32708;51.212;6.788;2024-01-16T08:31:40;100351.31;;;3.00;100.00
46955;BME280;32708;51.212;6.788;2024-01-16T08:34:07;100357.84;;;2.84;100.00
46955;BME280;32708;51.212;6.788;2024-01-16T08:36:37;100366.00;;;2.69;100.00
46955;BME280;32708;51.212;6.788;2024-01-16T08:39:09;100364.03;;;2.85;100.00
46955;BME280;32708;51.212;6.788;2024-01-16T08:41:54;100360.00;;;2.87;100.00
46955;BME280;32708;51.212;6.788;2024-01-16T08:44:33;100364.84;;;2.85;100.00
46955;BME280;32708;51.212;6.788;2024-01-16T08:47:07;100363.78;;;2.86;100.00
46955;BME280;32708;51.212;6.788;2024-01-16T08:49:33;100360.03;;;2.77;100.00
46955;BME280;32708;51.212;6.788;2024-01-16T08:52:00;100360.66;;;2.59;100.00
46955;BME280;32708;51.212;6.788;2024-01-16T08:54:26;100357.53;;;2.96;100.00
46955;BME280;32708;51.212;6.788;2024-01-16T08:56:53;100369.22;;;2.71;100.00
46955;BME280;32708;51.212;6.788;2024-01-16T08:59:19;100356.56;;;2.71;100.00
46955;BME280;32708;51.212;6.788;2024-01-16T09:01:45;100353.69;;;2.47;100.00
46955;BME280;32708;51.212;6.788;2024-01-16T09:04:12;100359.09;;;2.42;100.00
46955;BME280;32708;51.212;6.788;2024-01-16T09:06:38;100353.03;;;2.81;100.00
46955;BME280;32708;51.212;6.788;2024-01-16T09:09:05;100340.44;;;3.16;100.00
46955;BME280;32708;51.212;6.788;2024-01-16T09:11:31;100338.84;;;3.15;100.00
46955;BME280;32708;51.212;6.788;2024-01-16T09:14:00;100333.09;;;3.61;100.00
46955;BME280;32708;51.212;6.788;2024-01-16T09:16:27;100344.22;;;3.15;100.00
46955;BME280;32708;51.212;6.788;2024-01-16T09:18:53;100340.16;;;3.17;100.00
46955;BME280;32708;51.212;6.788;2024-01-16T09:21:20;100343.13;;;2.61;100.00
46955;BME280;32708;51.212;6.788;2024-01-16T09:23:49;100354.56;;;2.97;100.00
46955;BME280;32708;51.212;6.788;2024-01-16T09:26:15;100351.41;;;2.80;100.00
46955;BME280;32708;51.212;6.788;2024-01-16T09:28:42;100337.94;;;3.29;100.00
46955;BME280;32708;51.212;6.788;2024-01-16T09:31:08;100344.19;;;3.20;100.00
46955;BME280;32708;51.212;6.788;2024-01-16T09:33:34;100345.47;;;2.78;100.00
46955;BME280;32708;51.212;6.788;2024-01-16T09:36:01;100344.88;;;2.91;100.00
46955;BME280;32708;51.212;6.788;2024-01-16T09:38:27;100343.41;;;2.65;100.00
46955;BME280;32708;51.212;6.788;2024-01-16T09:40:54;100337.88;;;2.85;100.00
46955;BME280;32708;51.212;6.788;2024-01-16T09:43:27;100340.03;;;2.88;100.00
46955;BME280;32708;51.212;6.788;2024-01-16T09:45:56;100335.31;;;2.60;100.00
46955;BME280;32708;51.212;6.788;2024-01-16T09:48:28;100324.38;;;2.90;100.00
46955;BME280;32708;51.212;6.788;2024-01-16T09:50:55;100328.78;;;2.76;100.00
46955;BME280;32708;51.212;6.788;2024-01-16T09:53:21;100332.16;;;3.02;100.00
46955;BME280;32708;51.212;6.788;2024-01-16T09:55:50;100324.19;;;3.21;100.00
46955;BME280;32708;51.212;6.788;2024-01-16T09:58:20;100325.97;;;3.01;100.00
46955;BME280;32708;51.212;6.788;2024-01-16T10:00:51;100331.03;;;2.59;100.00
46955;BME280;32708;51.212;6.788;2024-01-16T10:03:19;100336.06;;;2.70;100.00
46955;BME280;32708;51.212;6.788;2024-01-16T10:05:48;100327.84;;;3.01;100.00
46955;BME280;32708;51.212;6.788;2024-01-16T10:08:14;100314.56;;;3.15;100.00
46955;BME280;32708;51.212;6.788;2024-01-16T10:10:41;100316.81;;;2.92;100.00
46955;BME280;32708;51.212;6.788;2024-01-16T10:13:07;100314.94;;;2.93;100.00
46955;BME280;32708;51.212;6.788;2024-01-16T10:15:34;100309.31;;;3.28;100.00
46955;BME280;32708;51.212;6.788;2024-01-16T10:18:02;100312.63;;;3.54;100.00
46955;BME280;32708;51.212;6.788;2024-01-16T10:20:35;100301.03;;;3.54;100.00
46955;BME280;32708;51.212;6.788;2024-01-16T10:23:02;100299.97;;;3.50;100.00
46955;BME280;32708;51.212;6.788;2024-01-16T10:25:29;100294.50;;;2.82;100.00
46955;BME280;32708;51.212;6.788;2024-01-16T10:28:05;100297.66;;;3.38;100.00
46955;BME280;32708;51.212;6.788;2024-01-16T10:30:34;100289.88;;;3.66;100.00
46955;BME280;32708;51.212;6.788;2024-01-16T10:33:14;100280.72;;;3.62;100.00
46955;BME280;32708;51.212;6.788;2024-01-16T10:35:43;100278.50;;;3.35;100.00
46955;BME280;32708;51.212;6.788;2024-01-16T10:38:22;100270.34;;;3.06;100.00
46955;BME280;32708;51.212;6.788;2024-01-16T10:41:09;100273.03;;;3.11;100.00
46955;BME280;32708;51.212;6.788;2024-01-16T10:43:37;100266.13;;;3.63;100.00
46955;BME280;32708;51.212;6.788;2024-01-16T10:46:16;100267.66;;;3.74;100.00
46955;BME280;32708;51.212;6.788;2024-01-16T10:48:58;100271.75;;;3.37;100.00
46955;BME280;32708;51.212;6.788;2024-01-16T10:51:27;100279.88;;;3.66;100.00
46955;BME280;32708;51.212;6.788;2024-01-16T10:54:00;100265.47;;;3.76;100.00
46955;BME280;32708;51.212;6.788;2024-01-16T10:56:30;100275.56;;;3.31;100.00
46955;BME280;32708;51.212;6.788;2024-01-16T10:59:34;100278.25;;;3.36;100.00
46955;BME280;32708;51.212;6.788;2024-01-16T11:02:03;100273.84;;;3.11;100.00
46955;BME280;32708;51.212;6.788;2024-01-16T11:04:32;100268.56;;;3.30;100.00
46955;BME280;32708;51.212;6.788;2024-01-16T11:07:00;100275.53;;;2.97;100.00
46955;BME280;32708;51.212;6.788;2024-01-16T11:09:31;100269.47;;;3.49;100.00
46955;BME280;32708;51.212;6.788;2024-01-16T11:11:57;100267.22;;;2.93;100.00
46955;BME280;32708;51.212;6.788;2024-01-16T11:14:26;100267.53;;;3.21;100.00
46955;BME280;32708;51.212;6.788;2024-01-16T11:16:56;100270.72;;;3.28;100.00
46955;BME280;32708;51.212;6.788;2024-01-16T11:19:26;100256.88;;;3.40;100.00
46955;BME280;32708;51.212;6.788;2024-01-16T11:21:54;100266.38;;;3.32;100.00
46955;BME280;32708;51.212;6.788;2024-01-16T11:24:20;100265.97;;;3.49;100.00
46955;BME280;32708;51.212;6.788;2024-01-16T11:26:47;100279.44;;;3.20;100.00
46955;BME280;32708;51.212;6.788;2024-01-16T11:31:57;100286.50;;;3.11;100.00
46955;BME280;32708;51.212;6.788;2024-01-16T11:37:13;100301.59;;;3.51;100.00
46955;BME280;32708;51.212;6.788;2024-01-16T11:39:40;100293.22;;;3.52;100.00
46955;BME280;32708;51.212;6.788;2024-01-16T11:42:06;100288.13;;;3.12;100.00
46955;BME280;32708;51.212;6.788;2024-01-16T11:44:41;100275.88;;;3.29;100.00
46955;BME280;32708;51.212;6.788;2024-01-16T11:47:15;100267.41;;;3.70;100.00
46955;BME280;32708;51.212;6.788;2024-01-16T11:49:42;100254.00;;;3.89;100.00
46955;BME280;32708;51.212;6.788;2024-01-16T11:52:08;100249.16;;;3.57;100.00
46955;BME280;32708;51.212;6.788;2024-01-16T11:54:37;100243.00;;;3.22;100.00
46955;BME280;32708;51.212;6.788;2024-01-16T11:57:45;100247.94;;;3.44;100.00
46955;BME280;32708;51.212;6.788;2024-01-16T12:00:21;100240.19;;;3.38;100.00
46955;BME280;32708;51.212;6.788;2024-01-16T12:02:56;100235.88;;;3.37;100.00
46955;BME280;32708;51.212;6.788;2024-01-16T12:05:22;100226.72;;;3.33;100.00
46955;BME280;32708;51.212;6.788;2024-01-16T12:07:53;100227.84;;;3.55;100.00
46955;BME280;32708;51.212;6.788;2024-01-16T12:10:23;100237.31;;;3.58;100.00
46955;BME280;32708;51.212;6.788;2024-01-16T12:12:51;100219.09;;;3.40;100.00
46955;BME280;32708;51.212;6.788;2024-01-16T12:15:23;100211.53;;;3.42;100.00
46955;BME280;32708;51.212;6.788;2024-01-16T12:18:02;100203.59;;;3.21;100.00
46955;BME280;32708;51.212;6.788;2024-01-16T12:20:37;100206.09;;;2.79;100.00
46955;BME280;32708;51.212;6.788;2024-01-16T12:23:06;100197.34;;;3.31;100.00
46955;BME280;32708;51.212;6.788;2024-01-16T12:25:37;100192.88;;;3.45;100.00
46955;BME280;32708;51.212;6.788;2024-01-16T12:28:07;100194.59;;;3.36;100.00
46955;BME280;32708;51.212;6.788;2024-01-16T12:30:38;100193.50;;;3.37;100.00
46955;BME280;32708;51.212;6.788;2024-01-16T12:33:08;100188.78;;;3.48;100.00
46955;BME280;32708;51.212;6.788;2024-01-16T12:35:38;100184.44;;;3.52;100.00
46955;BME280;32708;51.212;6.788;2024-01-16T12:38:13;100177.66;;;3.54;100.00
46955;BME280;32708;51.212;6.788;2024-01-16T12:40:51;100174.34;;;3.34;100.00
46955;BME280;32708;51.212;6.788;2024-01-16T12:43:19;100164.34;;;3.63;100.00
46955;BME280;32708;51.212;6.788;2024-01-16T12:45:45;100175.09;;;3.15;100.00
46955;BME280;32708;51.212;6.788;2024-01-16T12:48:12;100171.28;;;3.16;100.00
46955;BME280;32708;51.212;6.788;2024-01-16T12:50:39;100190.72;;;3.13;100.00
46955;BME280;32708;51.212;6.788;2024-01-16T12:53:10;100174.66;;;3.32;100.00
46955;BME280;32708;51.212;6.788;2024-01-16T12:55:40;100178.63;;;3.40;100.00
46955;BME280;32708;51.212;6.788;2024-01-16T12:58:21;100166.34;;;3.52;100.00
46955;BME280;32708;51.212;6.788;2024-01-16T13:00:51;100167.69;;;3.26;100.00